sensor_id;sensor_type;location;lat;lon;timestamp;pressure;altitude;pressure_sealevel;temperature;humidity
30873;BME280;17579;42.690;2.586;2023-07-08T00:00:53;97313.38;;;24.56;50.00
30873;BME280;17579;42.690;2.586;2023-07-08T00:03:24;97302.66;;;24.49;49.93
30873;BME280;17579;42.690;2.586;2023-07-08T00:05:54;97291.72;;;24.44;50.19
30873;BME280;17579;42.690;2.586;2023-07-08T00:08:21;97290.31;;;24.42;50.67
30873;BME280;17579;42.690;2.586;2023-07-08T00:10:50;97289.50;;;24.41;51.29
30873;BME280;17579;42.690;2.586;2023-07-08T00:13:40;97278.69;;;24.41;50.82
30873;BME280;17579;42.690;2.586;2023-07-08T00:16:24;97271.97;;;24.32;50.71
30873;BME280;17579;42.690;2.586;2023-07-08T00:21:39;97257.03;;;24.29;50.40
30873;BME280;17579;42.690;2.586;2023-07-08T00:24:10;97244.44;;;24.23;51.10
30873;BME280;17579;42.690;2.586;2023-07-08T00:26:38;97242.78;;;24.22;50.98
30873;BME280;17579;42.690;2.586;2023-07-08T00:29:12;97236.00;;;24.19;50.93
30873;BME280;17579;42.690;2.586;2023-07-08T00:31:40;97230.22;;;24.16;50.80
30873;BME280;17579;42.690;2.586;2023-07-08T00:34:13;97224.91;;;24.09;50.88
30873;BME280;17579;42.690;2.586;2023-07-08T00:36:47;97222.09;;;24.04;51.07
30873;BME280;17579;42.690;2.586;2023-07-08T00:39:20;97218.44;;;23.98;51.03
30873;BME280;17579;42.690;2.586;2023-07-08T00:41:55;97205.03;;;23.92;51.15
30873;BME280;17579;42.690;2.586;2023-07-08T00:44:43;97192.63;;;23.91;51.30
30873;BME280;17579;42.690;2.586;2023-07-08T00:50:03;97177.44;;;23.90;51.04
30873;BME280;17579;42.690;2.586;2023-07-08T00:52:48;97171.06;;;23.84;50.82
30873;BME280;17579;42.690;2.586;2023-07-08T00:55:25;97174.81;;;23.83;51.10
30873;BME280;17579;42.690;2.586;2023-07-08T00:57:51;97177.28;;;23.84;51.38
30873;BME280;17579;42.690;2.586;2023-07-08T01:00:20;97176.22;;;23.85;51.11
30873;BME280;17579;42.690;2.586;2023-07-08T01:02:52;97172.97;;;23.83;51.28
30873;BME280;17579;42.690;2.586;2023-07-08T01:05:25;97163.78;;;23.84;51.12
30873;BME280;17579;42.690;2.586;2023-07-08T01:07:56;97176.03;;;23.87;50.90
30873;BME280;17579;42.690;2.586;2023-07-08T01:10:30;97163.72;;;23.91;50.50
30873;BME280;17579;42.690;2.586;2023-07-08T01:13:04;97147.03;;;23.94;49.77
30873;BME280;17579;42.690;2.586;2023-07-08T01:15:47;97148.44;;;23.97;49.75
30873;BME280;17579;42.690;2.586;2023-07-08T01:18:36;97152.56;;;23.99;49.81
30873;BME280;17579;42.690;2.586;2023-07-08T01:21:26;97154.19;;;24.00;49.39
30873;BME280;17579;42.690;2.586;2023-07-08T01:23:53;97162.28;;;24.00;49.29
30873;BME280;17579;42.690;2.586;2023-07-08T01:26:23;97165.81;;;23.89;49.00
30873;BME280;17579;42.690;2.586;2023-07-08T01:28:51;97163.09;;;23.89;49.14
30873;BME280;17579;42.690;2.586;2023-07-08T01:31:19;97156.31;;;23.86;49.04
30873;BME280;17579;42.690;2.586;2023-07-08T01:33:52;97148.41;;;23.85;49.43
30873;BME280;17579;42.690;2.586;2023-07-08T01:36:21;97146.91;;;23.89;49.06
30873;BME280;17579;42.690;2.586;2023-07-08T01:38:47;97150.44;;;23.90;48.77
30873;BME280;17579;42.690;2.586;2023-07-08T01:41:16;97148.78;;;23.89;48.51
30873;BME280;17579;42.690;2.586;2023-07-08T01:43:51;97156.50;;;23.85;48.70
30873;BME280;17579;42.690;2.586;2023-07-08T01:46:22;97157.13;;;23.87;48.61
30873;BME280;17579;42.690;2.586;2023-07-08T01:48:53;97157.31;;;23.85;48.77
30873;BME280;17579;42.690;2.586;2023-07-08T01:51:20;97145.34;;;23.81;49.00
30873;BME280;17579;42.690;2.586;2023-07-08T01:53:55;97162.00;;;23.78;48.74
30873;BME280;17579;42.690;2.586;2023-07-08T01:56:21;97157.31;;;23.74;48.62
30873;BME280;17579;42.690;2.586;2023-07-08T01:58:47;97159.41;;;23.72;49.07
30873;BME280;17579;42.690;2.586;2023-07-08T02:01:16;97163.19;;;23.70;48.76
30873;BME280;17579;42.690;2.586;2023-07-08T02:03:44;97180.44;;;23.69;48.78
30873;BME280;17579;42.690;2.586;2023-07-08T02:06:14;97173.59;;;23.67;49.91
30873;BME280;17579;42.690;2.586;2023-07-08T02:08:42;97162.47;;;23.63;50.45
30873;BME280;17579;42.690;2.586;2023-07-08T02:11:18;97173.94;;;23.59;51.21
30873;BME280;17579;42.690;2.586;2023-07-08T02:13:44;97168.75;;;23.57;52.39
30873;BME280;17579;42.690;2.586;2023-07-08T02:16:12;97165.94;;;23.52;53.21
30873;BME280;17579;42.690;2.586;2023-07-08T02:18:43;97167.47;;;23.48;53.47
30873;BME280;17579;42.690;2.586;2023-07-08T02:21:11;97175.41;;;23.43;53.80
30873;BME280;17579;42.690;2.586;2023-07-08T02:23:41;97167.31;;;23.43;53.90
30873;BME280;17579;42.690;2.586;2023-07-08T02:26:17;97169.78;;;23.44;54.18
30873;BME280;17579;42.690;2.586;2023-07-08T02:28:50;97175.66;;;23.41;54.59
30873;BME280;17579;42.690;2.586;2023-07-08T02:31:19;97172.13;;;23.41;55.08
30873;BME280;17579;42.690;2.586;2023-07-08T02:33:50;97176.44;;;23.42;54.52
30873;BME280;17579;42.690;2.586;2023-07-08T02:39:34;97165.56;;;23.48;54.85
30873;BME280;17579;42.690;2.586;2023-07-08T02:42:00;97168.41;;;23.53;55.08
30873;BME280;17579;42.690;2.586;2023-07-08T02:44:26;97165.03;;;23.58;54.90
30873;BME280;17579;42.690;2.586;2023-07-08T02:46:54;97169.72;;;23.63;54.94
30873;BME280;17579;42.690;2.586;2023-07-08T02:49:23;97174.19;;;23.69;54.98
30873;BME280;17579;42.690;2.586;2023-07-08T02:51:51;97166.47;;;23.73;54.48
30873;BME280;17579;42.690;2.586;2023-07-08T02:54:20;97163.28;;;23.76;54.49
30873;BME280;17579;42.690;2.586;2023-07-08T02:56:45;97163.06;;;23.77;55.06
30873;BME280;17579;42.690;2.586;2023-07-08T02:59:13;97169.06;;;23.79;55.23
30873;BME280;17579;42.690;2.586;2023-07-08T03:01:59;97179.03;;;23.79;54.19
30873;BME280;17579;42.690;2.586;2023-07-08T03:04:35;97169.59;;;23.88;54.59
30873;BME280;17579;42.690;2.586;2023-07-08T03:07:04;97171.06;;;23.84;54.93
30873;BME280;17579;42.690;2.586;2023-07-08T03:09:50;97171.06;;;23.84;54.83
30873;BME280;17579;42.690;2.586;2023-07-08T03:12:24;97177.50;;;23.83;55.03
30873;BME280;17579;42.690;2.586;2023-07-08T03:14:50;97175.78;;;23.89;54.58
30873;BME280;17579;42.690;2.586;2023-07-08T03:17:26;97175.31;;;23.92;55.30
30873;BME280;17579;42.690;2.586;2023-07-08T03:20:01;97173.22;;;23.94;55.21
30873;BME280;17579;42.690;2.586;2023-07-08T03:22:29;97173.22;;;23.94;54.88
30873;BME280;17579;42.690;2.586;2023-07-08T03:24:55;97176.75;;;23.94;55.15
30873;BME280;17579;42.690;2.586;2023-07-08T03:27:21;97171.34;;;23.94;54.72
30873;BME280;17579;42.690;2.586;2023-07-08T03:29:58;97168.06;;;23.92;55.14
30873;BME280;17579;42.690;2.586;2023-07-08T03:32:26;97178.88;;;23.92;55.40
30873;BME280;17579;42.690;2.586;2023-07-08T03:34:52;97190.50;;;23.93;54.95
30873;BME280;17579;42.690;2.586;2023-07-08T03:37:23;97184.03;;;23.94;55.28
30873;BME280;17579;42.690;2.586;2023-07-08T03:39:56;97191.06;;;23.95;55.28
30873;BME280;17579;42.690;2.586;2023-07-08T03:42:25;97188.59;;;23.93;54.85
30873;BME280;17579;42.690;2.586;2023-07-08T03:45:24;97196.84;;;23.98;55.82
30873;BME280;17579;42.690;2.586;2023-07-08T03:47:40;97200.34;;;23.99;55.56
30873;BME280;17579;42.690;2.586;2023-07-08T03:50:25;97201.88;;;23.95;55.64
30873;BME280;17579;42.690;2.586;2023-07-08T03:52:56;97198.50;;;23.99;55.71
30873;BME280;17579;42.690;2.586;2023-07-08T03:55:27;97210.13;;;24.00;55.95
30873;BME280;17579;42.690;2.586;2023-07-08T03:57:58;97212.00;;;23.99;56.21
30873;BME280;17579;42.690;2.586;2023-07-08T04:00:24;97205.75;;;23.99;56.98
30873;BME280;17579;42.690;2.586;2023-07-08T04:02:50;97209.06;;;24.01;56.83
30873;BME280;17579;42.690;2.586;2023-07-08T04:05:20;97216.31;;;24.00;56.62
30873;BME280;17579;42.690;2.586;2023-07-08T04:08:10;97209.75;;;23.96;56.40
30873;BME280;17579;42.690;2.586;2023-07-08T04:10:43;97214.47;;;24.01;57.50
30873;BME280;17579;42.690;2.586;2023-07-08T04:13:12;97227.72;;;23.91;58.17
30873;BME280;17579;42.690;2.586;2023-07-08T04:16:02;97218.03;;;23.83;57.89
30873;BME280;17579;42.690;2.586;2023-07-08T04:18:57;97221.91;;;23.75;58.43
30873;BME280;17579;42.690;2.586;2023-07-08T04:21:24;97222.34;;;23.72;58.35
30873;BME280;17579;42.690;2.586;2023-07-08T04:23:56;97216.34;;;23.70;58.34
30873;BME280;17579;42.690;2.586;2023-07-08T04:26:31;97213.56;;;23.77;58.51
30873;BME280;17579;42.690;2.586;2023-07-08T04:29:04;97216.13;;;23.72;59.23
30873;BME280;17579;42.690;2.586;2023-07-08T04:31:29;97220.94;;;23.69;59.32
30873;BME280;17579;42.690;2.586;2023-07-08T04:34:18;97218.69;;;23.66;58.77
30873;BME280;17579;42.690;2.586;2023-07-08T04:36:49;97221.66;;;23.77;58.86
30873;BME280;17579;42.690;2.586;2023-07-08T04:39:15;97227.06;;;23.77;59.41
30873;BME280;17579;42.690;2.586;2023-07-08T04:41:46;97217.06;;;23.77;58.85
30873;BME280;17579;42.690;2.586;2023-07-08T04:44:16;97223.91;;;23.80;59.46
30873;BME280;17579;42.690;2.586;2023-07-08T04:47:12;97230.56;;;23.77;59.26
30873;BME280;17579;42.690;2.586;2023-07-08T04:49:56;97225.63;;;23.74;59.83
30873;BME280;17579;42.690;2.586;2023-07-08T04:52:25;97230.56;;;23.77;59.31
30873;BME280;17579;42.690;2.586;2023-07-08T04:54:51;97238.22;;;23.80;59.53
30873;BME280;17579;42.690;2.586;2023-07-08T04:57:19;97237.78;;;23.83;59.24
30873;BME280;17579;42.690;2.586;2023-07-08T04:59:46;97236.25;;;23.87;59.01
30873;BME280;17579;42.690;2.586;2023-07-08T05:02:15;97243.69;;;23.92;59.03
30873;BME280;17579;42.690;2.586;2023-07-08T05:04:41;97246.16;;;23.94;59.08
30873;BME280;17579;42.690;2.586;2023-07-08T05:07:09;97241.66;;;23.87;58.90
30873;BME280;17579;42.690;2.586;2023-07-08T05:09:37;97247.91;;;23.88;59.51
30873;BME280;17579;42.690;2.586;2023-07-08T05:12:05;97247.44;;;23.91;59.31
30873;BME280;17579;42.690;2.586;2023-07-08T05:14:40;97242.53;;;24.00;59.09
30873;BME280;17579;42.690;2.586;2023-07-08T05:17:09;97247.84;;;24.07;58.79
30873;BME280;17579;42.690;2.586;2023-07-08T05:19:40;97240.69;;;24.12;59.19
30873;BME280;17579;42.690;2.586;2023-07-08T05:22:12;97250.31;;;24.20;59.01
30873;BME280;17579;42.690;2.586;2023-07-08T05:25:18;97251.03;;;24.27;58.76
30873;BME280;17579;42.690;2.586;2023-07-08T05:27:33;97261.03;;;24.38;58.71
30873;BME280;17579;42.690;2.586;2023-07-08T05:30:06;97249.53;;;24.43;58.61
30873;BME280;17579;42.690;2.586;2023-07-08T05:32:38;97258.94;;;24.52;58.60
30873;BME280;17579;42.690;2.586;2023-07-08T05:35:04;97263.41;;;24.59;58.51
30873;BME280;17579;42.690;2.586;2023-07-08T05:37:39;97264.38;;;24.64;58.19
30873;BME280;17579;42.690;2.586;2023-07-08T05:40:07;97268.25;;;24.68;57.78
30873;BME280;17579;42.690;2.586;2023-07-08T05:42:33;97267.66;;;24.78;57.89
30873;BME280;17579;42.690;2.586;2023-07-08T05:44:59;97271.41;;;24.89;57.63
30873;BME280;17579;42.690;2.586;2023-07-08T05:47:38;97267.06;;;25.00;57.70
30873;BME280;17579;42.690;2.586;2023-07-08T05:50:07;97272.00;;;25.03;57.47
30873;BME280;17579;42.690;2.586;2023-07-08T05:52:36;97274.59;;;24.98;57.22
30873;BME280;17579;42.690;2.586;2023-07-08T05:55:05;97272.94;;;24.97;57.53
30873;BME280;17579;42.690;2.586;2023-07-08T05:57:31;97281.16;;;25.02;57.63
30873;BME280;17579;42.690;2.586;2023-07-08T06:02:53;97268.75;;;25.30;57.28
30873;BME280;17579;42.690;2.586;2023-07-08T06:05:31;97276.50;;;25.50;56.73
30873;BME280;17579;42.690;2.586;2023-07-08T06:08:00;97277.47;;;25.72;56.38
30873;BME280;17579;42.690;2.586;2023-07-08T06:10:44;97284.34;;;25.92;56.18
30873;BME280;17579;42.690;2.586;2023-07-08T06:13:23;97278.19;;;25.97;55.66
30873;BME280;17579;42.690;2.586;2023-07-08T06:15:58;97271.75;;;26.15;55.46
30873;BME280;17579;42.690;2.586;2023-07-08T06:18:24;97279.00;;;26.43;54.57
30873;BME280;17579;42.690;2.586;2023-07-08T06:20:59;97276.38;;;26.48;54.76
30873;BME280;17579;42.690;2.586;2023-07-08T06:23:45;97285.25;;;26.43;54.17
30873;BME280;17579;42.690;2.586;2023-07-08T06:26:14;97284.50;;;26.31;54.56
30873;BME280;17579;42.690;2.586;2023-07-08T06:28:40;97281.72;;;26.43;54.63
30873;BME280;17579;42.690;2.586;2023-07-08T06:31:20;97283.16;;;26.68;54.36
30873;BME280;17579;42.690;2.586;2023-07-08T06:33:48;97278.78;;;27.01;53.50
30873;BME280;17579;42.690;2.586;2023-07-08T06:36:22;97280.69;;;27.22;53.33
30873;BME280;17579;42.690;2.586;2023-07-08T06:38:48;97275.31;;;27.44;52.56
30873;BME280;17579;42.690;2.586;2023-07-08T06:41:16;97276.88;;;27.62;52.39
30873;BME280;17579;42.690;2.586;2023-07-08T06:43:51;97272.81;;;27.87;51.42
30873;BME280;17579;42.690;2.586;2023-07-08T06:46:19;97272.44;;;28.06;51.04
30873;BME280;17579;42.690;2.586;2023-07-08T06:48:48;97277.50;;;28.24;50.57
30873;BME280;17579;42.690;2.586;2023-07-08T06:51:25;97267.47;;;28.25;49.65
30873;BME280;17579;42.690;2.586;2023-07-08T06:53:55;97282.56;;;28.10;49.87
30873;BME280;17579;42.690;2.586;2023-07-08T06:56:26;97277.22;;;28.21;49.90
30873;BME280;17579;42.690;2.586;2023-07-08T06:59:15;97272.50;;;28.11;49.66
30873;BME280;17579;42.690;2.586;2023-07-08T07:02:03;97275.91;;;28.23;50.22
30873;BME280;17579;42.690;2.586;2023-07-08T07:04:39;97279.53;;;28.66;49.27
30873;BME280;17579;42.690;2.586;2023-07-08T07:07:08;97273.97;;;28.94;48.86
30873;BME280;17579;42.690;2.586;2023-07-08T07:10:45;97272.16;;;29.10;48.33
30873;BME280;17579;42.690;2.586;2023-07-08T07:12:28;97271.44;;;29.25;47.78
30873;BME280;17579;42.690;2.586;2023-07-08T07:14:54;97274.38;;;29.18;47.38
30873;BME280;17579;42.690;2.586;2023-07-08T07:17:30;97276.22;;;29.07;47.34
30873;BME280;17579;42.690;2.586;2023-07-08T07:19:56;97275.47;;;29.17;47.06
30873;BME280;17579;42.690;2.586;2023-07-08T07:22:26;97264.69;;;29.37;47.17
30873;BME280;17579;42.690;2.586;2023-07-08T07:24:52;97262.56;;;29.50;45.59
30873;BME280;17579;42.690;2.586;2023-07-08T07:27:24;97269.44;;;29.15;46.30
30873;BME280;17579;42.690;2.586;2023-07-08T07:30:06;97267.25;;;29.12;46.07
30873;BME280;17579;42.690;2.586;2023-07-08T07:32:45;97270.63;;;29.24;46.14
30873;BME280;17579;42.690;2.586;2023-07-08T07:35:11;97267.16;;;29.49;45.69
30873;BME280;17579;42.690;2.586;2023-07-08T07:37:41;97266.94;;;29.61;45.00
30873;BME280;17579;42.690;2.586;2023-07-08T07:40:12;97271.34;;;29.72;44.92
30873;BME280;17579;42.690;2.586;2023-07-08T07:42:48;97273.22;;;29.72;44.68
30873;BME280;17579;42.690;2.586;2023-07-08T07:45:14;97278.16;;;29.75;44.51
30873;BME280;17579;42.690;2.586;2023-07-08T07:47:46;97271.94;;;29.95;44.90
30873;BME280;17579;42.690;2.586;2023-07-08T07:50:30;97282.63;;;30.12;45.12
30873;BME280;17579;42.690;2.586;2023-07-08T07:52:59;97288.91;;;30.38;43.88
30873;BME280;17579;42.690;2.586;2023-07-08T07:58:24;97279.41;;;30.62;43.59
30873;BME280;17579;42.690;2.586;2023-07-08T08:01:00;97278.81;;;30.85;42.94
30873;BME280;17579;42.690;2.586;2023-07-08T08:03:53;97287.81;;;31.01;42.31
30873;BME280;17579;42.690;2.586;2023-07-08T08:06:22;97269.78;;;30.95;42.31
30873;BME280;17579;42.690;2.586;2023-07-08T08:08:58;97277.13;;;31.00;42.50
30873;BME280;17579;42.690;2.586;2023-07-08T08:11:24;97285.34;;;31.05;42.27
30873;BME280;17579;42.690;2.586;2023-07-08T08:14:18;97278.81;;;30.90;42.50
30873;BME280;17579;42.690;2.586;2023-07-08T08:17:04;97276.59;;;30.98;42.59
30873;BME280;17579;42.690;2.586;2023-07-08T08:19:47;97284.47;;;31.25;41.62
30873;BME280;17579;42.690;2.586;2023-07-08T08:22:13;97274.06;;;31.32;41.73
30873;BME280;17579;42.690;2.586;2023-07-08T08:24:44;97279.69;;;31.61;41.04
30873;BME280;17579;42.690;2.586;2023-07-08T08:27:10;97283.50;;;31.60;41.48
30873;BME280;17579;42.690;2.586;2023-07-08T08:29:36;97290.56;;;31.77;40.67
30873;BME280;17579;42.690;2.586;2023-07-08T08:32:05;97279.69;;;31.61;41.10
30873;BME280;17579;42.690;2.586;2023-07-08T08:34:31;97295.03;;;31.52;41.00
30873;BME280;17579;42.690;2.586;2023-07-08T08:37:00;97293.66;;;31.50;41.39
30873;BME280;17579;42.690;2.586;2023-07-08T08:39:43;97302.06;;;31.74;40.85
30873;BME280;17579;42.690;2.586;2023-07-08T08:44:50;97313.38;;;32.02;40.77
30873;BME280;17579;42.690;2.586;2023-07-08T08:52:59;97328.34;;;31.54;41.03
30873;BME280;17579;42.690;2.586;2023-07-08T08:55:29;97330.03;;;31.45;42.13
30873;BME280;17579;42.690;2.586;2023-07-08T09:00:37;97331.38;;;31.53;42.18
30873;BME280;17579;42.690;2.586;2023-07-08T09:03:11;97327.00;;;31.57;41.73
30873;BME280;17579;42.690;2.586;2023-07-08T09:05:45;97328.63;;;31.63;41.66
30873;BME280;17579;42.690;2.586;2023-07-08T09:13:36;97333.00;;;31.59;42.56
30873;BME280;17579;42.690;2.586;2023-07-08T09:16:10;97340.63;;;31.67;42.00
30873;BME280;17579;42.690;2.586;2023-07-08T09:19:13;97338.13;;;31.76;41.71
30873;BME280;17579;42.690;2.586;2023-07-08T09:22:00;97342.00;;;31.65;42.13
30873;BME280;17579;42.690;2.586;2023-07-08T09:24:38;97337.91;;;31.72;41.69
30873;BME280;17579;42.690;2.586;2023-07-08T09:27:09;97329.06;;;31.86;41.16
30873;BME280;17579;42.690;2.586;2023-07-08T09:29:38;97342.75;;;31.81;40.94
30873;BME280;17579;42.690;2.586;2023-07-08T09:37:47;97330.81;;;31.56;41.82
30873;BME280;17579;42.690;2.586;2023-07-08T09:45:58;97346.78;;;31.13;43.04
30873;BME280;17579;42.690;2.586;2023-07-08T09:48:36;97342.16;;;31.08;43.23
30873;BME280;17579;42.690;2.586;2023-07-08T09:51:04;97341.06;;;31.09;43.23
30873;BME280;17579;42.690;2.586;2023-07-08T09:53:30;97344.06;;;31.07;42.88
30873;BME280;17579;42.690;2.586;2023-07-08T09:55:58;97340.50;;;31.02;43.38
30873;BME280;17579;42.690;2.586;2023-07-08T09:58:35;97345.41;;;31.10;43.42
30873;BME280;17579;42.690;2.586;2023-07-08T10:03:36;97339.94;;;31.00;43.27
30873;BME280;17579;42.690;2.586;2023-07-08T10:06:14;97348.69;;;30.97;43.31
30873;BME280;17579;42.690;2.586;2023-07-08T10:09:05;97344.06;;;30.92;43.49
30873;BME280;17579;42.690;2.586;2023-07-08T10:11:56;97345.97;;;30.91;43.44
30873;BME280;17579;42.690;2.586;2023-07-08T10:14:36;97345.97;;;30.86;43.44
30873;BME280;17579;42.690;2.586;2023-07-08T10:17:05;97345.44;;;30.79;43.62
30873;BME280;17579;42.690;2.586;2023-07-08T10:19:34;97361.53;;;30.86;43.55
30873;BME280;17579;42.690;2.586;2023-07-08T10:35:42;97357.44;;;30.93;43.60
30873;BME280;17579;42.690;2.586;2023-07-08T10:45:59;97363.47;;;31.01;42.94
30873;BME280;17579;42.690;2.586;2023-07-08T10:51:17;97362.06;;;30.93;43.01
30873;BME280;17579;42.690;2.586;2023-07-08T11:09:44;97357.16;;;30.80;43.68
30873;BME280;17579;42.690;2.586;2023-07-08T11:13:00;97360.72;;;30.80;43.84
30873;BME280;17579;42.690;2.586;2023-07-08T11:15:58;97358.00;;;30.90;43.35
30873;BME280;17579;42.690;2.586;2023-07-08T11:21:28;97355.53;;;30.84;43.26
30873;BME280;17579;42.690;2.586;2023-07-08T11:26:33;97339.41;;;30.87;42.77
30873;BME280;17579;42.690;2.586;2023-07-08T11:29:25;97355.28;;;31.01;43.11
30873;BME280;17579;42.690;2.586;2023-07-08T11:31:53;97345.94;;;31.17;41.95
30873;BME280;17579;42.690;2.586;2023-07-08T11:34:24;97342.66;;;31.20;42.37
30873;BME280;17579;42.690;2.586;2023-07-08T11:36:54;97343.78;;;31.19;42.35
30873;BME280;17579;42.690;2.586;2023-07-08T11:44:42;97326.25;;;31.31;41.77
30873;BME280;17579;42.690;2.586;2023-07-08T11:47:18;97330.63;;;31.32;41.94
30873;BME280;17579;42.690;2.586;2023-07-08T11:49:53;97325.91;;;31.48;41.50
30873;BME280;17579;42.690;2.586;2023-07-08T11:52:22;97325.09;;;31.52;41.25
30873;BME280;17579;42.690;2.586;2023-07-08T11:54:57;97328.66;;;31.58;41.28
30873;BME280;17579;42.690;2.586;2023-07-08T11:57:30;97325.00;;;31.78;41.00
30873;BME280;17579;42.690;2.586;2023-07-08T12:02:27;97308.25;;;31.90;40.08
30873;BME280;17579;42.690;2.586;2023-07-08T12:05:02;97322.91;;;32.09;40.01
30873;BME280;17579;42.690;2.586;2023-07-08T12:08:11;97314.84;;;32.34;39.51
30873;BME280;17579;42.690;2.586;2023-07-08T12:10:59;97322.63;;;32.56;39.49
30873;BME280;17579;42.690;2.586;2023-07-08T12:13:28;97323.81;;;32.79;38.61
30873;BME280;17579;42.690;2.586;2023-07-08T12:15:56;97325.00;;;32.97;38.38
30873;BME280;17579;42.690;2.586;2023-07-08T12:18:45;97311.13;;;32.88;38.41
30873;BME280;17579;42.690;2.586;2023-07-08T12:21:36;97307.34;;;33.08;38.54
30873;BME280;17579;42.690;2.586;2023-07-08T12:24:09;97308.19;;;33.33;37.74
30873;BME280;17579;42.690;2.586;2023-07-08T12:26:39;97302.34;;;33.64;36.70
30873;BME280;17579;42.690;2.586;2023-07-08T12:29:11;97300.84;;;33.53;36.60
30873;BME280;17579;42.690;2.586;2023-07-08T12:31:42;97309.47;;;33.65;36.44
30873;BME280;17579;42.690;2.586;2023-07-08T12:34:17;97309.88;;;33.77;36.46
30873;BME280;17579;42.690;2.586;2023-07-08T12:36:59;97311.53;;;33.97;36.13
30873;BME280;17579;42.690;2.586;2023-07-08T12:39:35;97306.88;;;33.98;35.49
30873;BME280;17579;42.690;2.586;2023-07-08T12:42:11;97304.28;;;34.07;35.94
30873;BME280;17579;42.690;2.586;2023-07-08T12:44:42;97305.47;;;34.19;34.94
30873;BME280;17579;42.690;2.586;2023-07-08T12:47:13;97304.56;;;34.05;35.38
30873;BME280;17579;42.690;2.586;2023-07-08T12:49:39;97309.75;;;34.07;35.41
30873;BME280;17579;42.690;2.586;2023-07-08T12:52:19;97303.75;;;34.05;35.47
30873;BME280;17579;42.690;2.586;2023-07-08T12:54:45;97297.28;;;33.95;34.78
30873;BME280;17579;42.690;2.586;2023-07-08T12:57:31;97305.69;;;33.85;35.56
30873;BME280;17579;42.690;2.586;2023-07-08T13:00:06;97307.88;;;33.83;35.11
30873;BME280;17579;42.690;2.586;2023-07-08T13:02:44;97310.63;;;33.83;35.08
30873;BME280;17579;42.690;2.586;2023-07-08T13:05:14;97306.53;;;33.80;34.59
30873;BME280;17579;42.690;2.586;2023-07-08T13:07:43;97296.84;;;33.88;34.70
30873;BME280;17579;42.690;2.586;2023-07-08T13:10:31;97313.00;;;33.90;34.52
30873;BME280;17579;42.690;2.586;2023-07-08T13:13:10;97304.03;;;33.84;34.41
30873;BME280;17579;42.690;2.586;2023-07-08T13:16:00;97300.78;;;33.58;34.69
30873;BME280;17579;42.690;2.586;2023-07-08T13:18:32;97298.63;;;33.55;34.65
30873;BME280;17579;42.690;2.586;2023-07-08T13:21:05;97298.63;;;33.55;34.33
30873;BME280;17579;42.690;2.586;2023-07-08T13:23:55;97300.91;;;33.47;34.59
30873;BME280;17579;42.690;2.586;2023-07-08T13:26:30;97293.81;;;33.46;34.67
30873;BME280;17579;42.690;2.586;2023-07-08T13:29:19;97291.81;;;33.52;35.15
30873;BME280;17579;42.690;2.586;2023-07-08T13:32:01;97284.84;;;33.60;34.64
30873;BME280;17579;42.690;2.586;2023-07-08T13:34:50;97297.50;;;33.56;34.71
30873;BME280;17579;42.690;2.586;2023-07-08T13:37:20;97291.56;;;33.48;34.64
30873;BME280;17579;42.690;2.586;2023-07-08T13:40:08;97288.31;;;33.46;34.48
30873;BME280;17579;42.690;2.586;2023-07-08T13:42:46;97298.53;;;33.41;34.78
30873;BME280;17579;42.690;2.586;2023-07-08T13:45:25;97303.94;;;33.46;34.70
30873;BME280;17579;42.690;2.586;2023-07-08T13:50:38;97301.66;;;33.77;34.29
30873;BME280;17579;42.690;2.586;2023-07-08T13:53:21;97299.75;;;33.73;34.50
30873;BME280;17579;42.690;2.586;2023-07-08T13:55:57;97299.81;;;33.67;34.72
30873;BME280;17579;42.690;2.586;2023-07-08T13:58:28;97302.91;;;33.42;35.04
30873;BME280;17579;42.690;2.586;2023-07-08T14:01:18;97298.94;;;33.29;35.22
30873;BME280;17579;42.690;2.586;2023-07-08T14:03:46;97309.44;;;33.22;35.22
30873;BME280;17579;42.690;2.586;2023-07-08T14:06:15;97305.88;;;32.92;35.91
30873;BME280;17579;42.690;2.586;2023-07-08T14:08:41;97310.47;;;32.67;36.05
30873;BME280;17579;42.690;2.586;2023-07-08T14:11:09;97304.56;;;32.50;36.77
30873;BME280;17579;42.690;2.586;2023-07-08T14:13:35;97306.03;;;32.42;36.58
30873;BME280;17579;42.690;2.586;2023-07-08T14:18:55;97298.47;;;32.28;37.11
30873;BME280;17579;42.690;2.586;2023-07-08T14:21:21;97300.22;;;32.14;36.82
30873;BME280;17579;42.690;2.586;2023-07-08T14:24:11;97297.34;;;31.85;36.98
30873;BME280;17579;42.690;2.586;2023-07-08T14:26:43;97291.38;;;31.77;38.36
30873;BME280;17579;42.690;2.586;2023-07-08T14:32:33;97288.69;;;31.62;38.88
30873;BME280;17579;42.690;2.586;2023-07-08T14:37:52;97292.00;;;31.64;38.54
30873;BME280;17579;42.690;2.586;2023-07-08T14:40:26;97287.38;;;31.59;38.91
30873;BME280;17579;42.690;2.586;2023-07-08T14:43:02;97290.59;;;31.56;38.04
30873;BME280;17579;42.690;2.586;2023-07-08T14:45:30;97295.56;;;31.54;39.06
30873;BME280;17579;42.690;2.586;2023-07-08T14:47:59;97288.72;;;31.52;39.05
30873;BME280;17579;42.690;2.586;2023-07-08T14:50:27;97297.22;;;31.50;38.86
30873;BME280;17579;42.690;2.586;2023-07-08T14:53:00;97302.16;;;31.48;38.14
30873;BME280;17579;42.690;2.586;2023-07-08T14:55:32;97292.59;;;31.40;38.77
30873;BME280;17579;42.690;2.586;2023-07-08T14:58:15;97286.59;;;31.38;38.78
30873;BME280;17579;42.690;2.586;2023-07-08T15:00:55;97294.56;;;31.30;38.95
30873;BME280;17579;42.690;2.586;2023-07-08T15:03:25;97292.63;;;31.35;39.47
30873;BME280;17579;42.690;2.586;2023-07-08T15:05:56;97291.78;;;31.40;39.43
30873;BME280;17579;42.690;2.586;2023-07-08T15:08:25;97285.50;;;31.39;39.48
30873;BME280;17579;42.690;2.586;2023-07-08T15:11:04;97293.72;;;31.29;40.19
30873;BME280;17579;42.690;2.586;2023-07-08T15:13:33;97299.75;;;31.26;40.00
30873;BME280;17579;42.690;2.586;2023-07-08T15:15:59;97292.91;;;31.29;39.63
30873;BME280;17579;42.690;2.586;2023-07-08T15:18:35;97298.13;;;31.25;39.37
30873;BME280;17579;42.690;2.586;2023-07-08T15:21:00;97292.41;;;31.21;39.69
30873;BME280;17579;42.690;2.586;2023-07-08T15:23:49;97297.56;;;31.23;39.63